Terminal Aerodrome Forecast
Issued by NWS

Home | Current Version | Previous Version | Text Only | Print | Product List | Glossary On
Versions: 1 2 3 4 5 6 7 8 9 10 11 12 13 14 15 16
000
FTUS43 KAPX 231138
TAFPLN
TAF
KPLN 231138Z 2312/2412 00000KT 1/2SM FG OVC004 WS015/22030KT
     FM231400 16005KT 3SM -DZ BR OVC007 WS015/21030KT
     FM240100 12004KT 3SM RA BR OVC006 WS015/18028KT=

USA.gov is the U.S. government's official web portal to all federal, state and local government web resources and services.